Terminal Aerodrome Forecast
Issued by NWS Pocatello, ID

Home | Current Version | Previous Version | Text Only | Print | Product List | Glossary On
Versions: 1 2 3 4 5 6 7 8 9 10 11 12 13 14
000
FTUS45 KPIH 062356 CCA
TAFPIH
TAF COR
KPIH 062356Z 0700/0724 22015G25KT P6SM -SHRA FEW050 BKN140
     FM070400 16008KT P6SM VCSH FEW060 BKN100 BKN140
     FM071300 VRB05KT P6SM VCSH SCT035 BKN060 BKN180
     FM071800 03010KT P6SM -SHRA VCTS BKN040CB BKN100 BKN180=

USA.gov is the U.S. government's official web portal to all federal, state and local government web resources and services.